Time;durP1;ratioP1;P1;durP2;ratioP2;P2;SDS_P1;SDS_P2;PMS_P1;PMS_P2;Temp;Humidity;BMP_temperature;BMP_pressure;BME280_temperature;BME280_humidity;BME280_pressure;Samples;Min_cycle;Max_cycle;Signal;HPM_P1;HPM_P2
2022/10/01 00:01:09;;;;;;;;;;;;;;;11.33;100.00;100242.84;5049040;28;19924;-57
2022/10/01 00:03:37;;;;;;;;;;;;;;;11.24;100.00;100230.41;5051035;28;20334;-51
2022/10/01 00:06:06;;;;;;;;;;;;;;;11.27;100.00;100228.34;5052418;28;19921;-52
2022/10/01 00:08:34;;;;;;;;;;;;;;;11.28;100.00;100229.22;5050455;28;19921;-50
2022/10/01 00:11:06;;;;;;;;;;;;;;;11.30;100.00;100214.97;5050695;28;19943;-52
2022/10/01 00:13:37;;;;;;;;;;;;;;;11.29;100.00;100199.31;5056063;28;19963;-50
2022/10/01 00:16:06;;;;;;;;;;;;;;;11.25;100.00;100195.22;5055979;28;19932;-51
2022/10/01 00:18:35;;;;;;;;;;;;;;;11.27;100.00;100190.66;5055710;28;20011;-52
2022/10/01 00:21:05;;;;;;;;;;;;;;;11.20;100.00;100181.59;5055843;28;19920;-50
2022/10/01 00:23:33;;;;;;;;;;;;;;;11.22;100.00;100191.03;5055598;28;19927;-52
2022/10/01 00:26:08;;;;;;;;;;;;;;;11.24;100.00;100186.47;5054114;28;20018;-51
2022/10/01 00:28:38;;;;;;;;;;;;;;;11.16;100.00;100187.06;5052978;28;19948;-49
2022/10/01 00:31:06;;;;;;;;;;;;;;;11.14;100.00;100183.75;5052458;28;19924;-52
2022/10/01 00:33:35;;;;;;;;;;;;;;;11.14;100.00;100182.91;5052824;28;19921;-51
2022/10/01 00:36:02;;;;;;;;;;;;;;;11.22;100.00;100180.50;5053353;28;19932;-52
2022/10/01 00:38:30;;;;;;;;;;;;;;;11.14;100.00;100180.28;5053466;28;19966;-52
2022/10/01 00:40:58;;;;;;;;;;;;;;;11.21;100.00;100164.81;5086963;28;19956;-49
2022/10/01 00:43:27;;;;;;;;;;;;;;;11.16;100.00;100150.22;5055355;28;19928;-51
2022/10/01 00:45:59;;;;;;;;;;;;;;;11.23;100.00;100145.31;5055457;28;19920;-51
2022/10/01 00:48:28;;;;;;;;;;;;;;;11.22;100.00;100145.44;5055230;28;19924;-54
2022/10/01 00:50:56;;;;;;;;;;;;;;;11.18;100.00;100139.59;5053996;28;19925;-52
2022/10/01 00:53:24;;;;;;;;;;;;;;;11.13;100.00;100137.31;5053578;28;19928;-52
2022/10/01 00:55:54;;;;;;;;;;;;;;;11.16;100.00;100144.13;5052684;28;20454;-53
2022/10/01 00:58:25;;;;;;;;;;;;;;;11.14;100.00;100136.38;5052622;28;20016;-52
2022/10/01 01:00:56;;;;;;;;;;;;;;;11.12;100.00;100148.78;5053016;28;19959;-53
2022/10/01 01:03:26;;;;;;;;;;;;;;;11.16;100.00;100157.28;5052834;28;20012;-52
2022/10/01 01:05:54;;;;;;;;;;;;;;;11.14;100.00;100167.94;5055243;28;19920;-48
2022/10/01 01:08:22;;;;;;;;;;;;;;;11.09;100.00;100169.28;5054610;28;19943;-56
2022/10/01 01:11:05;;;;;;;;;;;;;;;11.09;100.00;100158.75;5054765;28;20383;-52
2022/10/01 01:13:37;;;;;;;;;;;;;;;11.11;100.00;100152.41;5054560;28;19920;-49
2022/10/01 01:16:09;;;;;;;;;;;;;;;11.04;100.00;100137.22;5054787;28;19928;-49
2022/10/01 01:18:41;;;;;;;;;;;;;;;11.09;100.00;100127.16;5052975;28;19935;-55
2022/10/01 01:21:13;;;;;;;;;;;;;;;11.06;100.00;100103.72;5052189;28;19924;-56
2022/10/01 01:23:49;;;;;;;;;;;;;;;11.01;100.00;100103.25;5052061;28;19928;-56
2022/10/01 01:26:27;;;;;;;;;;;;;;;11.02;100.00;100091.78;5052119;28;19925;-56
2022/10/01 01:28:59;;;;;;;;;;;;;;;11.09;100.00;100079.78;5053764;28;20368;-56
2022/10/01 01:31:33;;;;;;;;;;;;;;;11.06;100.00;100066.91;5054422;28;19927;-55
2022/10/01 01:34:05;;;;;;;;;;;;;;;11.10;100.00;100047.28;5052142;28;20088;-56
2022/10/01 01:36:36;;;;;;;;;;;;;;;10.97;100.00;100028.97;5052679;28;19927;-56
2022/10/01 01:39:07;;;;;;;;;;;;;;;10.90;100.00;100025.16;5086436;28;19971;-56
2022/10/01 01:41:38;;;;;;;;;;;;;;;10.86;100.00;100011.41;5054226;28;20367;-55
2022/10/01 01:44:10;;;;;;;;;;;;;;;10.85;100.00;100007.09;5054381;28;19920;-56
2022/10/01 01:46:41;;;;;;;;;;;;;;;10.88;100.00;100012.16;5054301;28;19921;-57
2022/10/01 01:49:09;;;;;;;;;;;;;;;10.78;100.00;99996.25;5085427;28;19928;-56
2022/10/01 01:51:41;;;;;;;;;;;;;;;10.86;100.00;99995.63;5067105;28;19928;-56
2022/10/01 01:54:09;;;;;;;;;;;;;;;10.87;100.00;100004.38;5053752;28;19967;-56
2022/10/01 01:56:36;;;;;;;;;;;;;;;10.84;100.00;100002.81;5052042;28;20007;-56
2022/10/01 01:59:04;;;;;;;;;;;;;;;10.89;100.00;100011.16;5067567;28;19968;-55
2022/10/01 02:01:38;;;;;;;;;;;;;;;10.86;100.00;100014.03;5065815;28;19924;-54
2022/10/01 02:04:09;;;;;;;;;;;;;;;10.87;100.00;100020.16;5051748;28;19920;-55
2022/10/01 02:06:47;;;;;;;;;;;;;;;10.86;100.00;100016.69;5067355;28;19971;-54
2022/10/01 02:09:20;;;;;;;;;;;;;;;10.94;100.00;100014.28;5052614;28;19969;-56
2022/10/01 02:11:57;;;;;;;;;;;;;;;10.91;100.00;100019.78;5054005;28;19925;-56
2022/10/01 02:14:31;;;;;;;;;;;;;;;10.89;100.00;100000.63;5052929;28;19974;-57
2022/10/01 02:17:02;;;;;;;;;;;;;;;10.83;100.00;99995.88;5050209;28;20002;-54
2022/10/01 02:19:35;;;;;;;;;;;;;;;10.98;100.00;99989.38;5052897;28;20279;-54
2022/10/01 02:22:06;;;;;;;;;;;;;;;10.92;100.00;99965.38;5051398;28;19929;-54
2022/10/01 02:24:38;;;;;;;;;;;;;;;10.98;100.00;99970.97;5051416;28;19974;-57
2022/10/01 02:27:08;;;;;;;;;;;;;;;10.99;100.00;99953.41;5051209;28;20398;-53
2022/10/01 02:29:37;;;;;;;;;;;;;;;10.91;100.00;99937.41;5051349;28;20477;-57
2022/10/01 02:32:10;;;;;;;;;;;;;;;10.96;100.00;99929.97;5053567;28;19955;-57
2022/10/01 02:34:39;;;;;;;;;;;;;;;10.87;100.00;99928.09;5051425;28;19920;-55
2022/10/01 02:37:08;;;;;;;;;;;;;;;10.82;100.00;99933.72;5083302;28;19974;-57
2022/10/01 02:39:37;;;;;;;;;;;;;;;10.86;100.00;99921.97;5051202;28;20504;-57
2022/10/01 02:42:06;;;;;;;;;;;;;;;10.89;100.00;99916.47;5051627;28;19924;-56
2022/10/01 02:44:37;;;;;;;;;;;;;;;10.86;100.00;99914.09;5050358;28;19924;-55
2022/10/01 02:47:07;;;;;;;;;;;;;;;10.86;100.00;99906.19;5053431;28;19925;-57
2022/10/01 02:49:38;;;;;;;;;;;;;;;10.85;100.00;99899.25;5051703;28;19920;-56
2022/10/01 02:52:09;;;;;;;;;;;;;;;10.86;100.00;99900.94;5051266;28;19943;-50
2022/10/01 02:54:39;;;;;;;;;;;;;;;10.97;100.00;99908.78;5052873;28;20413;-51
2022/10/01 02:59:57;;;;;;;;;;;;;;;10.92;100.00;99896.97;5047773;28;19921;-57
2022/10/01 03:02:26;;;;;;;;;;;;;;;10.97;100.00;99889.53;5050314;28;20430;-57
2022/10/01 03:04:56;;;;;;;;;;;;;;;10.99;100.00;99885.81;5051277;28;19920;-58
2022/10/01 03:07:24;;;;;;;;;;;;;;;10.84;100.00;99879.19;5083668;28;20375;-58
2022/10/01 03:09:52;;;;;;;;;;;;;;;10.84;100.00;99871.31;5051347;28;20027;-58
2022/10/01 03:12:22;;;;;;;;;;;;;;;10.88;100.00;99869.25;5067162;28;19924;-58
2022/10/01 03:14:50;;;;;;;;;;;;;;;10.94;100.00;99871.38;5051572;28;19925;-58
2022/10/01 03:17:18;;;;;;;;;;;;;;;10.91;100.00;99866.38;5050614;28;20409;-57
2022/10/01 03:19:45;;;;;;;;;;;;;;;10.82;100.00;99866.19;5051930;28;20019;-57
2022/10/01 03:22:17;;;;;;;;;;;;;;;10.87;100.00;99871.06;5052735;28;19968;-58
2022/10/01 03:24:45;;;;;;;;;;;;;;;10.87;100.00;99865.78;5052559;28;20063;-57
2022/10/01 03:27:13;;;;;;;;;;;;;;;10.93;100.00;99867.91;5052090;28;20125;-58
2022/10/01 03:29:41;;;;;;;;;;;;;;;10.92;100.00;99863.63;5066800;28;20390;-59
2022/10/01 03:32:09;;;;;;;;;;;;;;;10.92;100.00;99865.41;5052520;28;19921;-59
2022/10/01 03:34:37;;;;;;;;;;;;;;;10.90;100.00;99873.44;5053003;28;19921;-59
2022/10/01 03:37:05;;;;;;;;;;;;;;;10.87;100.00;99868.41;5052822;28;20386;-59
2022/10/01 03:39:34;;;;;;;;;;;;;;;10.91;100.00;99872.47;5051446;28;20284;-59
2022/10/01 03:42:03;;;;;;;;;;;;;;;10.99;100.00;99864.78;5052251;28;19921;-59
2022/10/01 03:44:31;;;;;;;;;;;;;;;11.03;100.00;99872.41;5052011;28;19959;-58
2022/10/01 03:46:58;;;;;;;;;;;;;;;11.02;100.00;99878.66;5052002;28;19924;-58
2022/10/01 03:49:27;;;;;;;;;;;;;;;11.04;100.00;99880.19;5056665;28;19921;-57
2022/10/01 03:51:55;;;;;;;;;;;;;;;11.06;100.00;99880.91;5056626;28;19925;-57
2022/10/01 03:54:24;;;;;;;;;;;;;;;11.09;100.00;99885.06;5056403;28;19921;-57
2022/10/01 03:56:53;;;;;;;;;;;;;;;11.13;100.00;99876.78;5056557;28;19920;-57
2022/10/01 03:59:21;;;;;;;;;;;;;;;11.16;100.00;99878.34;5056308;28;19947;-57
2022/10/01 04:01:49;;;;;;;;;;;;;;;11.13;100.00;99876.78;5056401;28;19925;-58
2022/10/01 04:04:17;;;;;;;;;;;;;;;11.16;100.00;99878.34;5056102;28;19921;-54
2022/10/01 04:06:45;;;;;;;;;;;;;;;11.17;100.00;99872.13;5054309;28;20007;-55
2022/10/01 04:09:12;;;;;;;;;;;;;;;11.14;100.00;99873.22;5054812;28;19964;-58
2022/10/01 04:11:40;;;;;;;;;;;;;;;11.15;100.00;99871.41;5055186;28;20015;-59
2022/10/01 04:14:10;;;;;;;;;;;;;;;11.13;100.00;99874.16;5055443;28;20050;-58
2022/10/01 04:16:38;;;;;;;;;;;;;;;11.14;100.00;99872.38;5055571;28;19975;-59
2022/10/01 04:19:06;;;;;;;;;;;;;;;11.14;100.00;99869.75;5054876;28;19924;-59
2022/10/01 04:21:38;;;;;;;;;;;;;;;11.21;100.00;99877.94;5054809;28;19955;-59
2022/10/01 04:24:06;;;;;;;;;;;;;;;11.21;100.00;99873.53;5055721;28;19929;-59
2022/10/01 04:26:34;;;;;;;;;;;;;;;11.25;100.00;99877.56;5055179;28;19936;-59
2022/10/01 04:29:01;;;;;;;;;;;;;;;11.27;100.00;99877.44;5055064;28;19920;-59
2022/10/01 04:31:33;;;;;;;;;;;;;;;11.35;100.00;99882.09;5053383;28;19924;-53
2022/10/01 04:34:03;;;;;;;;;;;;;;;11.31;100.00;99887.56;5053113;28;19925;-58
2022/10/01 04:36:31;;;;;;;;;;;;;;;11.40;100.00;99877.25;5053886;28;19974;-58
2022/10/01 04:38:59;;;;;;;;;;;;;;;11.39;100.00;99880.84;5055042;28;19921;-53
2022/10/01 04:41:30;;;;;;;;;;;;;;;11.40;100.00;99878.09;5053217;28;19947;-52
2022/10/01 04:43:59;;;;;;;;;;;;;;;11.44;100.00;99886.59;5054310;28;19927;-58
2022/10/01 04:46:28;;;;;;;;;;;;;;;11.46;100.00;99882.00;5070225;28;20379;-53
2022/10/01 04:48:57;;;;;;;;;;;;;;;11.56;100.00;99882.91;5055579;28;19927;-59
2022/10/01 04:51:25;;;;;;;;;;;;;;;11.45;100.00;99878.56;5071113;28;20001;-58
2022/10/01 04:53:54;;;;;;;;;;;;;;;11.49;100.00;99881.75;5055295;28;20023;-59
2022/10/01 04:56:22;;;;;;;;;;;;;;;11.53;100.00;99888.41;5054520;28;19964;-59
2022/10/01 04:58:50;;;;;;;;;;;;;;;11.56;100.00;99885.53;5053584;28;19928;-59
2022/10/01 05:01:18;;;;;;;;;;;;;;;11.55;100.00;99888.28;5054076;28;20311;-59
2022/10/01 05:03:46;;;;;;;;;;;;;;;11.53;100.00;99890.22;5054097;28;19971;-59
2022/10/01 05:06:15;;;;;;;;;;;;;;;11.59;100.00;99898.44;5054313;28;19959;-59
2022/10/01 05:08:43;;;;;;;;;;;;;;;11.56;100.00;99903.97;5054594;28;19966;-60
2022/10/01 05:11:11;;;;;;;;;;;;;;;11.60;100.00;99909.81;5054062;28;19920;-60
2022/10/01 05:13:39;;;;;;;;;;;;;;;11.56;100.00;99908.38;5054376;28;19921;-59
2022/10/01 05:16:07;;;;;;;;;;;;;;;11.59;100.00;99913.38;5054060;28;19985;-59
2022/10/01 05:18:35;;;;;;;;;;;;;;;11.56;100.00;99918.94;5055133;28;19967;-59
2022/10/01 05:21:04;;;;;;;;;;;;;;;11.60;100.00;99913.28;5054882;28;20578;-59
2022/10/01 05:23:34;;;;;;;;;;;;;;;11.58;100.00;99915.19;5053323;28;19920;-59
2022/10/01 05:26:03;;;;;;;;;;;;;;;11.65;100.00;99929.50;5054077;28;19920;-59
2022/10/01 05:28:30;;;;;;;;;;;;;;;11.63;100.00;99930.59;5052221;28;19974;-58
2022/10/01 05:30:59;;;;;;;;;;;;;;;11.70;100.00;99938.81;5052818;28;19921;-58
2022/10/01 05:33:27;;;;;;;;;;;;;;;11.69;100.00;99937.19;5052696;28;20670;-59
2022/10/01 05:35:55;;;;;;;;;;;;;;;11.74;100.00;99943.72;5054635;28;19928;-58
2022/10/01 05:38:23;;;;;;;;;;;;;;;11.81;100.00;99954.59;5054710;28;19924;-59
2022/10/01 05:40:52;;;;;;;;;;;;;;;11.83;100.00;99947.38;5054754;28;19959;-59
2022/10/01 05:43:20;;;;;;;;;;;;;;;11.72;100.00;99945.63;5054534;28;19966;-59
2022/10/01 05:45:50;;;;;;;;;;;;;;;11.79;100.00;99954.72;5055113;28;20381;-59
2022/10/01 05:48:18;;;;;;;;;;;;;;;11.71;100.00;99958.94;5054277;28;20019;-61
2022/10/01 05:50:46;;;;;;;;;;;;;;;11.72;100.00;99957.97;5053097;28;19920;-60
2022/10/01 05:53:14;;;;;;;;;;;;;;;11.78;100.00;99970.63;5053716;28;20391;-59
2022/10/01 05:55:42;;;;;;;;;;;;;;;11.76;100.00;99980.47;5054034;28;19920;-59
2022/10/01 05:58:12;;;;;;;;;;;;;;;11.81;100.00;99975.66;5054209;28;20014;-59
2022/10/01 06:00:40;;;;;;;;;;;;;;;11.85;100.00;99977.06;5054568;28;20377;-59
2022/10/01 06:03:08;;;;;;;;;;;;;;;11.82;100.00;99978.16;5054569;28;20295;-59
2022/10/01 06:05:37;;;;;;;;;;;;;;;11.87;100.00;99975.13;5054453;28;19925;-59
2022/10/01 06:08:05;;;;;;;;;;;;;;;11.94;100.00;99970.19;5054480;28;20257;-59
2022/10/01 06:10:35;;;;;;;;;;;;;;;11.92;100.00;99970.31;5054112;28;19920;-59
2022/10/01 06:13:04;;;;;;;;;;;;;;;11.95;100.00;99972.72;5052796;28;19925;-58
2022/10/01 06:15:36;;;;;;;;;;;;;;;11.98;100.00;99975.09;5052585;28;20652;-59
2022/10/01 06:18:04;;;;;;;;;;;;;;;11.99;100.00;99973.28;5051602;28;19921;-59
2022/10/01 06:20:32;;;;;;;;;;;;;;;11.97;100.00;99980.47;5053195;28;19920;-59
2022/10/01 06:23:00;;;;;;;;;;;;;;;12.03;100.00;99984.41;5053136;28;19925;-59
2022/10/01 06:25:29;;;;;;;;;;;;;;;12.08;100.00;99982.19;5053792;28;19921;-60
2022/10/01 06:27:58;;;;;;;;;;;;;;;12.08;100.00;99982.19;5054062;28;19963;-53
2022/10/01 06:30:26;;;;;;;;;;;;;;;12.10;100.00;99980.28;5068970;28;19924;-54
2022/10/01 06:33:01;;;;;;;;;;;;;;;12.13;100.00;99985.28;5050375;28;19970;-59
2022/10/01 06:35:29;;;;;;;;;;;;;;;12.18;100.00;100006.81;5052052;28;19921;-59
2022/10/01 06:38:01;;;;;;;;;;;;;;;12.16;100.00;99992.94;5053472;28;19948;-59
2022/10/01 06:40:29;;;;;;;;;;;;;;;12.22;100.00;100002.97;5052651;28;19927;-52
2022/10/01 06:42:57;;;;;;;;;;;;;;;12.23;100.00;100004.63;5050578;28;19920;-53
2022/10/01 06:45:25;;;;;;;;;;;;;;;12.30;100.00;100007.59;5050767;28;19974;-54
2022/10/01 06:47:54;;;;;;;;;;;;;;;12.33;100.00;100008.13;5049454;28;19924;-53
2022/10/01 06:50:24;;;;;;;;;;;;;;;12.33;100.00;100010.78;5050388;28;19921;-53
2022/10/01 06:52:52;;;;;;;;;;;;;;;12.34;100.00;100007.19;5050617;28;20008;-52
2022/10/01 06:55:21;;;;;;;;;;;;;;;12.36;100.00;100014.13;5050915;28;19920;-51
2022/10/01 06:57:53;;;;;;;;;;;;;;;12.40;100.00;100012.91;5083025;28;20383;-53
2022/10/01 07:00:21;;;;;;;;;;;;;;;12.47;100.00;100011.41;5050966;28;19921;-51
2022/10/01 07:02:49;;;;;;;;;;;;;;;12.55;100.00;100016.84;5048964;28;19921;-51
2022/10/01 07:05:17;;;;;;;;;;;;;;;12.61;100.00;100010.19;5066354;28;19924;-51
2022/10/01 07:07:47;;;;;;;;;;;;;;;12.74;100.00;100009.97;5050895;28;19921;-52
2022/10/01 07:10:15;;;;;;;;;;;;;;;12.74;100.00;100020.53;5066377;28;19967;-51
2022/10/01 07:12:43;;;;;;;;;;;;;;;12.76;100.00;100023.84;5050147;28;19959;-53
2022/10/01 07:15:11;;;;;;;;;;;;;;;12.81;100.00;100019.84;5050231;28;19952;-52
2022/10/01 07:17:43;;;;;;;;;;;;;;;12.83;100.00;100017.09;5049472;28;20349;-52
2022/10/01 07:20:10;;;;;;;;;;;;;;;12.95;100.00;100026.56;5050442;28;20000;-52
2022/10/01 07:22:38;;;;;;;;;;;;;;;12.98;100.00;100025.47;5053017;28;19921;-53
2022/10/01 07:25:08;;;;;;;;;;;;;;;12.97;100.00;100034.34;5054912;28;19974;-54
2022/10/01 07:27:36;;;;;;;;;;;;;;;13.05;100.00;100038.94;5054498;28;19947;-54
2022/10/01 07:30:05;;;;;;;;;;;;;;;13.11;100.00;100038.41;5056836;28;20363;-51
2022/10/01 07:32:34;;;;;;;;;;;;;;;13.20;100.00;100048.16;5052988;28;19925;-54
2022/10/01 07:35:02;;;;;;;;;;;;;;;13.26;100.00;100052.88;5070877;28;19920;-53
2022/10/01 07:37:30;;;;;;;;;;;;;;;13.31;100.00;100049.84;5056982;28;19921;-54
2022/10/01 07:39:58;;;;;;;;;;;;;;;13.38;100.00;100050.97;5054195;28;19990;-60
2022/10/01 07:42:30;;;;;;;;;;;;;;;13.47;100.00;100047.50;5055496;28;19931;-60
2022/10/01 07:44:57;;;;;;;;;;;;;;;13.50;100.00;100049.88;5056056;28;20284;-53
2022/10/01 07:47:25;;;;;;;;;;;;;;;13.49;100.00;100050.84;5052942;28;19920;-59
2022/10/01 07:49:53;;;;;;;;;;;;;;;13.57;100.00;100060.72;5055823;28;19958;-52
2022/10/01 07:52:21;;;;;;;;;;;;;;;13.63;100.00;100068.09;5054782;28;19921;-54
2022/10/01 07:54:49;;;;;;;;;;;;;;;13.73;100.00;100076.03;5069887;28;19974;-53
2022/10/01 07:57:17;;;;;;;;;;;;;;;13.82;100.00;100079.63;5056115;28;19960;-54
2022/10/01 07:59:50;;;;;;;;;;;;;;;13.90;100.00;100071.00;5053890;28;20609;-54
2022/10/01 08:02:22;;;;;;;;;;;;;;;14.00;100.00;100085.03;5052874;28;19974;-53
2022/10/01 08:07:36;;;;;;;;;;;;;;;14.21;100.00;100095.47;5055787;28;20371;-51
2022/10/01 08:10:04;;;;;;;;;;;;;;;14.28;100.00;100096.56;5056085;28;20011;-52
2022/10/01 08:12:32;;;;;;;;;;;;;;;14.32;100.00;100103.22;5055725;28;19920;-54
2022/10/01 08:15:02;;;;;;;;;;;;;;;14.40;100.00;100105.19;5055955;28;20402;-54
2022/10/01 08:17:29;;;;;;;;;;;;;;;14.57;100.00;100100.94;5055922;28;19925;-55
2022/10/01 08:19:57;;;;;;;;;;;;;;;14.59;100.00;100109.59;5055816;28;19927;-54
2022/10/01 08:22:25;;;;;;;;;;;;;;;14.62;100.00;100109.28;5055718;28;20405;-53
2022/10/01 08:24:53;;;;;;;;;;;;;;;14.57;100.00;100114.16;5055556;28;19920;-54
2022/10/01 08:27:23;;;;;;;;;;;;;;;14.60;100.00;100105.09;5054380;28;19920;-54
2022/10/01 08:29:51;;;;;;;;;;;;;;;14.65;100.00;100110.84;5053427;28;19993;-51
2022/10/01 08:32:20;;;;;;;;;;;;;;;14.68;100.00;100116.69;5050908;28;19928;-53
2022/10/01 08:34:48;;;;;;;;;;;;;;;14.65;100.00;100116.97;5052694;28;20383;-53
2022/10/01 08:37:27;;;;;;;;;;;;;;;14.75;100.00;100108.16;5053156;28;19970;-54
2022/10/01 08:39:55;;;;;;;;;;;;;;;14.77;100.00;100111.50;5053515;28;20303;-54
2022/10/01 08:42:32;;;;;;;;;;;;;;;14.75;100.00;100116.94;5052727;28;19920;-53
2022/10/01 08:45:01;;;;;;;;;;;;;;;14.69;100.00;100125.44;5055555;28;19921;-53
2022/10/01 08:47:33;;;;;;;;;;;;;;;14.78;100.00;100121.09;5055107;28;20361;-54
2022/10/01 08:50:05;;;;;;;;;;;;;;;14.67;100.00;100122.97;5053421;28;19921;-53
2022/10/01 08:52:36;;;;;;;;;;;;;;;14.72;100.00;100129.63;5054065;28;19921;-53
2022/10/01 08:55:06;;;;;;;;;;;;;;;14.79;100.00;100131.56;5053876;28;20383;-54
2022/10/01 08:57:37;;;;;;;;;;;;;;;14.80;100.00;100135.03;5053261;28;19935;-60
2022/10/01 09:00:07;;;;;;;;;;;;;;;14.92;100.00;100141.00;5055579;28;19974;-53
2022/10/01 09:02:39;;;;;;;;;;;;;;;15.04;100.00;100137.19;5054022;28;19920;-55
2022/10/01 09:05:23;;;;;;;;;;;;;;;15.15;100.00;100146.75;5052871;28;20351;-54
2022/10/01 09:08:05;;;;;;;;;;;;;;;15.16;100.00;100156.34;5053015;28;19920;-60
2022/10/01 09:10:39;;;;;;;;;;;;;;;15.23;100.00;100160.09;5053944;28;19975;-60
2022/10/01 09:13:18;;;;;;;;;;;;;;;15.20;100.00;100176.25;5055140;28;19921;-58
2022/10/01 09:15:50;;;;;;;;;;;;;;;15.09;100.00;100168.50;5054827;28;19956;-56
2022/10/01 09:18:25;;;;;;;;;;;;;;;14.97;100.00;100171.34;5054344;28;19920;-56
2022/10/01 09:20:57;;;;;;;;;;;;;;;15.01;100.00;100166.56;5053680;28;19920;-56
2022/10/01 09:23:27;;;;;;;;;;;;;;;15.02;100.00;100169.09;5052638;28;20387;-59
2022/10/01 09:25:56;;;;;;;;;;;;;;;15.17;100.00;100179.19;5053723;28;19925;-60
2022/10/01 09:28:24;;;;;;;;;;;;;;;15.34;100.00;100178.44;5053373;28;19920;-60
2022/10/01 09:30:55;;;;;;;;;;;;;;;15.33;100.00;100176.75;5053474;28;20375;-60
2022/10/01 09:33:29;;;;;;;;;;;;;;;15.35;100.00;100180.09;5054294;28;19920;-59
2022/10/01 09:36:02;;;;;;;;;;;;;;;15.38;100.00;100178.97;5054554;28;19920;-56
2022/10/01 09:38:34;;;;;;;;;;;;;;;15.39;100.00;100185.91;5054605;28;19925;-58
2022/10/01 09:41:02;;;;;;;;;;;;;;;15.34;100.00;100189.03;5053324;28;19975;-59
2022/10/01 09:43:31;;;;;;;;;;;;;;;15.30;100.00;100190.28;5052718;28;19921;-59
2022/10/01 09:45:59;;;;;;;;;;;;;;;15.28;100.00;100197.53;5054024;28;20010;-58
2022/10/01 09:48:32;;;;;;;;;;;;;;;15.25;100.00;100199.66;5052972;28;19924;-57
2022/10/01 09:51:03;;;;;;;;;;;;;;;15.32;100.00;100190.97;5054131;28;19921;-58
2022/10/01 09:53:34;;;;;;;;;;;;;;;15.49;100.00;100207.09;5053165;28;19937;-59
2022/10/01 09:56:05;;;;;;;;;;;;;;;15.48;100.00;100200.13;5052518;28;19971;-59
2022/10/01 09:58:35;;;;;;;;;;;;;;;15.49;100.00;100199.13;5053949;28;19929;-59
2022/10/01 10:01:04;;;;;;;;;;;;;;;15.80;100.00;100183.78;5052131;28;19921;-60
2022/10/01 10:03:34;;;;;;;;;;;;;;;15.96;100.00;100200.81;5053237;28;19920;-60
2022/10/01 10:06:05;;;;;;;;;;;;;;;15.82;100.00;100207.50;5054316;28;20018;-60
2022/10/01 10:08:34;;;;;;;;;;;;;;;15.76;100.00;100210.69;5054343;28;19924;-60
2022/10/01 10:11:03;;;;;;;;;;;;;;;15.84;100.00;100211.66;5054346;28;20003;-60
2022/10/01 10:13:34;;;;;;;;;;;;;;;15.80;100.00;100204.13;5053828;28;19921;-60
2022/10/01 10:16:18;;;;;;;;;;;;;;;16.18;100.00;100210.16;5052031;28;20411;-60
2022/10/01 10:18:50;;;;;;;;;;;;;;;16.56;100.00;100218.75;5050906;28;19929;-61
2022/10/01 10:21:21;;;;;;;;;;;;;;;16.88;100.00;100209.38;5051858;28;19927;-62
2022/10/01 10:23:50;;;;;;;;;;;;;;;17.21;100.00;100209.56;5051589;28;20352;-62
2022/10/01 10:26:19;;;;;;;;;;;;;;;17.46;100.00;100209.69;5052236;28;19921;-62
2022/10/01 10:28:47;;;;;;;;;;;;;;;17.44;100.00;100209.84;5053419;28;20014;-62
2022/10/01 10:31:17;;;;;;;;;;;;;;;17.89;100.00;100215.81;5060738;28;20375;-63
2022/10/01 10:33:46;;;;;;;;;;;;;;;18.26;100.00;100217.22;5052815;28;19932;-63
2022/10/01 10:36:15;;;;;;;;;;;;;;;18.51;100.00;100218.03;5050825;28;20417;-63
2022/10/01 10:38:48;;;;;;;;;;;;;;;18.70;100.00;100222.19;5052403;28;19924;-63
2022/10/01 10:41:18;;;;;;;;;;;;;;;19.00;100.00;100217.16;5053225;28;20452;-63
2022/10/01 10:43:48;;;;;;;;;;;;;;;18.90;100.00;100233.34;5053125;28;20367;-63
2022/10/01 10:46:21;;;;;;;;;;;;;;;19.37;100.00;100238.88;5053441;28;19921;-63
2022/10/01 10:48:57;;;;;;;;;;;;;;;19.37;100.00;100242.41;5053046;28;19921;-64
2022/10/01 10:51:27;;;;;;;;;;;;;;;19.33;100.00;100237.56;5052914;28;20383;-63
2022/10/01 10:53:55;;;;;;;;;;;;;;;19.08;100.00;100243.78;5052700;28;19920;-60
2022/10/01 10:56:26;;;;;;;;;;;;;;;18.96;100.00;100252.31;5051922;28;19924;-57
2022/10/01 10:58:54;;;;;;;;;;;;;;;19.01;100.00;100253.47;5059071;28;19985;-57
2022/10/01 11:01:26;;;;;;;;;;;;;;;18.96;100.00;100244.34;5059339;28;20014;-59
2022/10/01 11:03:56;;;;;;;;;;;;;;;18.63;100.00;100258.47;5071708;28;19921;-60
2022/10/01 11:06:24;;;;;;;;;;;;;;;18.33;100.00;100266.13;5067897;28;19982;-60
2022/10/01 11:08:59;;;;;;;;;;;;;;;18.07;100.00;100268.91;5071527;28;19956;-61
2022/10/01 11:11:35;;;;;;;;;;;;;;;17.55;100.00;100278.66;5063995;28;19931;-60
2022/10/01 11:14:10;;;;;;;;;;;;;;;17.27;100.00;100279.84;5058422;28;20378;-61
2022/10/01 11:16:46;;;;;;;;;;;;;;;17.04;100.00;100291.84;5069240;28;19924;-61
2022/10/01 11:19:22;;;;;;;;;;;;;;;16.80;100.00;100294.28;5069117;28;19927;-56
2022/10/01 11:21:57;;;;;;;;;;;;;;;16.49;100.00;100294.69;5072531;28;20367;-56
2022/10/01 11:24:39;;;;;;;;;;;;;;;16.46;100.00;100311.75;5070571;28;20391;-55
2022/10/01 11:27:11;;;;;;;;;;;;;;;16.48;100.00;100303.63;5070931;28;19920;-55
2022/10/01 11:29:47;;;;;;;;;;;;;;;17.33;100.00;100316.41;5072610;28;19960;-56
2022/10/01 11:32:21;;;;;;;;;;;;;;;17.77;100.00;100318.16;5072606;28;19928;-55
2022/10/01 11:34:54;;;;;;;;;;;;;;;18.37;100.00;100323.34;5072504;28;19920;-57
2022/10/01 11:37:33;;;;;;;;;;;;;;;18.56;100.00;100318.72;5071148;28;19982;-57
2022/10/01 11:40:04;;;;;;;;;;;;;;;19.15;100.00;100318.56;5070521;28;19928;-57
2022/10/01 11:42:35;;;;;;;;;;;;;;;19.87;100.00;100325.72;5070330;28;19924;-57
2022/10/01 11:45:05;;;;;;;;;;;;;;;19.97;100.00;100319.34;5070715;28;19947;-58
2022/10/01 11:47:36;;;;;;;;;;;;;;;20.30;100.00;100327.19;5072586;28;19924;-57
2022/10/01 11:50:06;;;;;;;;;;;;;;;20.49;100.00;100333.91;5072558;28;21285;-57
2022/10/01 11:52:37;;;;;;;;;;;;;;;20.70;99.93;100326.09;5070290;28;19921;-58
2022/10/01 12:00:54;;;;;;;;;;;;;;;20.52;93.32;100346.91;5070041;28;20402;-59
2022/10/01 12:03:24;;;;;;;;;;;;;;;20.39;93.54;100347.50;5071937;28;19978;-58
2022/10/01 12:05:53;;;;;;;;;;;;;;;20.62;90.64;100355.50;5070388;28;20375;-58
2022/10/01 12:08:23;;;;;;;;;;;;;;;20.83;89.71;100364.75;5072451;28;19920;-58
2022/10/01 12:10:57;;;;;;;;;;;;;;;21.37;90.17;100358.44;5074107;28;20503;-58
2022/10/01 12:13:28;;;;;;;;;;;;;;;21.42;85.96;100359.53;5075328;28;19921;-64
2022/10/01 12:16:00;;;;;;;;;;;;;;;21.69;82.36;100367.16;5072863;28;19920;-64
2022/10/01 12:18:31;;;;;;;;;;;;;;;21.52;81.02;100353.09;5073880;28;20347;-58
2022/10/01 12:21:01;;;;;;;;;;;;;;;21.18;75.45;100370.47;5075931;28;19920;-58
2022/10/01 12:23:31;;;;;;;;;;;;;;;21.64;76.26;100369.53;5075380;28;19920;-58
2022/10/01 12:26:05;;;;;;;;;;;;;;;21.66;73.60;100373.69;5075133;28;20451;-64
2022/10/01 12:28:39;;;;;;;;;;;;;;;21.99;72.17;100377.84;5075176;28;19973;-66
2022/10/01 12:31:11;;;;;;;;;;;;;;;22.35;69.74;100390.47;5075285;28;19973;-64
2022/10/01 12:33:51;;;;;;;;;;;;;;;22.31;65.20;100395.34;5075438;28;19985;-58
2022/10/01 12:36:25;;;;;;;;;;;;;;;22.46;63.12;100400.69;5075844;28;20374;-63
2022/10/01 12:38:59;;;;;;;;;;;;;;;21.73;65.54;100408.56;5075072;28;19924;-58
2022/10/01 12:41:37;;;;;;;;;;;;;;;20.63;64.81;100417.78;5072883;28;19983;-58
2022/10/01 12:44:17;;;;;;;;;;;;;;;19.96;72.97;100430.63;5074620;28;19920;-57
2022/10/01 12:46:50;;;;;;;;;;;;;;;19.43;78.99;100433.66;5075339;28;19920;-61
2022/10/01 12:49:22;;;;;;;;;;;;;;;19.25;79.02;100431.19;5075127;28;20411;-60
2022/10/01 12:51:55;;;;;;;;;;;;;;;18.94;84.73;100430.16;5074954;28;20378;-56
2022/10/01 12:54:40;;;;;;;;;;;;;;;19.14;87.08;100436.00;5073442;28;19971;-56
2022/10/01 12:57:16;;;;;;;;;;;;;;;19.22;84.55;100441.34;5072271;28;19992;-56